createdAt,value
2017-05-20T00:01:15.339Z,10.18
2017-05-20T00:03:41.567Z,10.32
2017-05-20T00:06:07.476Z,8.50
2017-05-20T00:08:33.359Z,8.94
2017-05-20T00:10:59.215Z,11.40
2017-05-20T00:13:25.107Z,11.66
2017-05-20T00:15:51.071Z,12.46
2017-05-20T00:18:16.930Z,10.34
2017-05-20T00:20:42.808Z,9.88
2017-05-20T00:23:08.683Z,9.96
2017-05-20T00:25:34.597Z,12.82
2017-05-20T00:28:00.567Z,11.50
2017-05-20T00:30:26.440Z,11.34
2017-05-20T00:32:52.307Z,11.00
2017-05-20T00:35:18.198Z,8.96
2017-05-20T00:37:44.065Z,12.88
2017-05-20T00:40:10.763Z,14.38
2017-05-20T00:42:36.620Z,14.10
2017-05-20T00:45:02.520Z,15.16
2017-05-20T00:47:28.387Z,15.64
2017-05-20T00:49:54.282Z,13.86
2017-05-20T00:52:20.964Z,14.40
2017-05-20T00:54:46.832Z,11.36
2017-05-20T00:57:13.449Z,13.92
2017-05-20T00:59:39.314Z,15.84
2017-05-20T01:02:05.204Z,13.02
2017-05-20T01:04:31.175Z,14.72
2017-05-20T01:06:57.013Z,11.86
2017-05-20T01:09:22.898Z,16.00
2017-05-20T01:11:48.771Z,16.52
2017-05-20T01:14:14.651Z,18.52
2017-05-20T01:16:40.604Z,20.72
2017-05-20T01:19:06.469Z,13.32
2017-05-20T01:21:32.347Z,14.36
2017-05-20T01:23:58.216Z,13.56
2017-05-20T01:26:24.088Z,15.02
2017-05-20T01:28:50.020Z,15.82
2017-05-20T01:31:16.655Z,13.12
2017-05-20T01:33:43.289Z,11.70
2017-05-20T01:36:09.151Z,15.96
2017-05-20T01:38:35.026Z,12.30
2017-05-20T01:41:01.779Z,12.90
2017-05-20T01:43:28.403Z,21.02
2017-05-20T01:45:54.271Z,15.08
2017-05-20T01:48:20.139Z,19.20
2017-05-20T01:50:45.999Z,12.76
2017-05-20T01:53:12.044Z,16.76
2017-05-20T01:55:37.920Z,16.76
2017-05-20T01:58:04.544Z,18.20
2017-05-20T02:00:31.149Z,18.12
2017-05-20T02:02:57.026Z,19.80
2017-05-20T02:05:23.000Z,21.56
2017-05-20T02:07:48.871Z,20.20
2017-05-20T02:10:14.745Z,20.18
2017-05-20T02:12:40.622Z,14.64
2017-05-20T02:15:06.534Z,16.76
2017-05-20T02:17:32.435Z,18.46
2017-05-20T02:19:59.063Z,22.82
2017-05-20T02:22:25.674Z,19.26
2017-05-20T02:24:51.545Z,24.24
2017-05-20T02:27:17.411Z,15.72
2017-05-20T02:29:43.376Z,20.02
2017-05-20T02:32:09.250Z,27.24
2017-05-20T02:34:35.129Z,23.18
2017-05-20T02:37:01.000Z,22.66
2017-05-20T02:39:27.635Z,21.32
2017-05-20T02:41:54.339Z,27.00
2017-05-20T02:44:20.216Z,22.66
2017-05-20T02:46:46.087Z,19.94
2017-05-20T02:49:12.002Z,22.32
2017-05-20T02:51:37.866Z,24.70
2017-05-20T02:54:04.586Z,26.02
2017-05-20T02:56:30.449Z,24.92
2017-05-20T02:58:56.337Z,23.04
2017-05-20T03:01:23.088Z,24.02
2017-05-20T03:03:49.700Z,16.96
2017-05-20T03:06:15.655Z,17.74
2017-05-20T03:08:41.551Z,21.98
2017-05-20T03:11:08.162Z,19.96
2017-05-20T03:13:34.021Z,28.84
2017-05-20T03:15:59.900Z,18.10
2017-05-20T03:18:25.911Z,22.28
2017-05-20T03:20:51.793Z,23.72
2017-05-20T03:23:17.652Z,19.44
2017-05-20T03:25:43.610Z,20.00
2017-05-20T03:28:10.211Z,19.62
2017-05-20T03:30:36.161Z,22.92
2017-05-20T03:33:02.035Z,18.70
2017-05-20T03:35:27.919Z,27.80
2017-05-20T03:37:53.798Z,28.14
2017-05-20T03:40:19.680Z,23.92
2017-05-20T03:42:45.647Z,20.04
2017-05-20T03:45:11.513Z,26.12
2017-05-20T03:47:37.405Z,23.36
2017-05-20T03:50:04.038Z,15.76
2017-05-20T03:52:30.731Z,22.34
2017-05-20T03:54:56.754Z,19.06
2017-05-20T03:57:22.619Z,19.66
2017-05-20T03:59:49.219Z,24.00
2017-05-20T04:02:15.152Z,18.24
2017-05-20T04:04:41.052Z,22.80
2017-05-20T04:07:07.017Z,18.96
2017-05-20T04:09:33.626Z,16.08
2017-05-20T04:11:59.511Z,13.86
2017-05-20T04:14:25.376Z,13.88
2017-05-20T04:16:51.253Z,14.94
2017-05-20T04:19:17.216Z,13.20
2017-05-20T04:21:43.828Z,15.12
2017-05-20T04:24:09.707Z,11.08
2017-05-20T04:26:35.568Z,15.30
2017-05-20T04:29:01.490Z,13.76
2017-05-20T04:31:27.465Z,13.34
2017-05-20T04:33:53.334Z,12.76
2017-05-20T04:36:19.239Z,15.42
2017-05-20T04:38:45.120Z,10.52
2017-05-20T04:41:10.996Z,10.54
2017-05-20T04:43:36.962Z,11.50
2017-05-20T04:46:03.563Z,9.96
2017-05-20T04:48:29.419Z,11.24
2017-05-20T04:50:55.307Z,11.88
2017-05-20T04:53:21.928Z,8.58
2017-05-20T04:55:47.897Z,8.88
2017-05-20T04:58:13.773Z,12.46
2017-05-20T05:00:39.652Z,7.58
2017-05-20T05:03:05.684Z,8.56
2017-05-20T05:05:31.735Z,9.36
2017-05-20T05:10:28.440Z,8.16
2017-05-20T05:12:54.408Z,6.92
2017-05-20T05:15:20.283Z,10.24
2017-05-20T05:17:46.164Z,6.36
2017-05-20T05:20:12.874Z,8.40
2017-05-20T05:22:38.766Z,8.42
2017-05-20T05:25:04.649Z,9.40
2017-05-20T05:27:31.266Z,8.48
2017-05-20T05:29:57.137Z,6.68
2017-05-20T05:32:23.097Z,10.08
2017-05-20T05:34:49.011Z,7.30
2017-05-20T05:37:14.940Z,9.22
2017-05-20T05:39:40.895Z,6.10
2017-05-20T05:42:06.896Z,7.76
2017-05-20T05:44:32.846Z,7.84
2017-05-20T05:46:58.787Z,6.90
2017-05-20T05:49:24.800Z,8.20
2017-05-20T05:51:50.664Z,5.94
2017-05-20T05:54:16.889Z,12.96
2017-05-20T05:56:43.025Z,7.16
2017-05-20T05:59:09.043Z,6.52
2017-05-20T06:01:35.008Z,7.72
2017-05-20T06:04:00.933Z,8.12
2017-05-20T06:06:26.838Z,8.32
2017-05-20T06:08:52.960Z,8.30
2017-05-20T06:11:18.901Z,11.36
2017-05-20T06:13:44.810Z,6.92
2017-05-20T06:16:10.694Z,11.16
2017-05-20T06:18:36.591Z,12.14
2017-05-20T06:21:02.575Z,8.60
2017-05-20T06:23:28.450Z,10.96
2017-05-20T06:25:54.321Z,10.84
2017-05-20T06:28:20.251Z,11.94
2017-05-20T06:30:46.284Z,12.80
2017-05-20T06:33:12.358Z,9.70
2017-05-20T06:35:39.001Z,8.52
2017-05-20T06:38:05.708Z,8.04
2017-05-20T06:40:31.700Z,8.62
2017-05-20T06:42:57.583Z,7.88
2017-05-20T06:45:23.508Z,9.00
2017-05-20T06:47:49.551Z,9.20
2017-05-20T06:50:15.537Z,11.48
2017-05-20T06:52:42.161Z,6.28
2017-05-20T06:55:08.136Z,7.52
2017-05-20T06:57:34.119Z,8.96
2017-05-20T07:00:00.723Z,5.98
2017-05-20T07:02:26.620Z,10.04
2017-05-20T07:04:52.598Z,7.00
2017-05-20T07:07:19.219Z,7.56
2017-05-20T07:09:45.309Z,8.58
2017-05-20T07:12:11.174Z,7.50
2017-05-20T07:14:37.779Z,5.76
2017-05-20T07:17:04.417Z,11.72
2017-05-20T07:19:30.304Z,9.20
2017-05-20T07:21:56.175Z,7.80
2017-05-20T07:24:22.045Z,5.84
2017-05-20T07:26:48.066Z,8.36
2017-05-20T07:29:13.954Z,6.56
2017-05-20T07:31:40.593Z,6.66
2017-05-20T07:34:06.605Z,7.62
2017-05-20T07:36:33.233Z,4.94
2017-05-20T07:38:59.997Z,6.14
2017-05-20T07:41:26.659Z,6.70
2017-05-20T07:43:52.655Z,5.62
2017-05-20T07:46:19.291Z,5.78
2017-05-20T07:48:45.900Z,5.82
2017-05-20T07:51:12.581Z,5.42
2017-05-20T07:53:38.472Z,5.88
2017-05-20T07:56:05.088Z,5.38
2017-05-20T07:58:30.969Z,5.46
2017-05-20T08:00:56.855Z,4.28
2017-05-20T08:03:23.472Z,4.30
2017-05-20T08:05:50.159Z,3.74
2017-05-20T08:08:16.120Z,5.18
2017-05-20T08:10:41.991Z,4.42
2017-05-20T08:13:07.883Z,4.02
2017-05-20T08:15:34.589Z,4.00
2017-05-20T08:18:00.464Z,5.08
2017-05-20T08:20:26.343Z,4.04
2017-05-20T08:22:52.967Z,3.84
2017-05-20T08:25:18.941Z,3.22
2017-05-20T08:27:44.834Z,3.92
2017-05-20T08:30:11.451Z,3.10
2017-05-20T08:32:37.350Z,4.28
2017-05-20T08:35:03.300Z,2.74
2017-05-20T08:37:29.283Z,2.52
2017-05-20T08:42:26.409Z,3.38
2017-05-20T08:44:52.379Z,3.94
2017-05-20T08:47:18.287Z,3.10
2017-05-20T08:49:44.248Z,3.48
2017-05-20T08:52:10.936Z,5.58
2017-05-20T08:54:36.852Z,6.98
2017-05-20T08:57:02.737Z,7.28
2017-05-20T08:59:29.344Z,7.42
2017-05-20T09:01:55.275Z,9.42
2017-05-20T09:04:21.150Z,8.12
2017-05-20T09:06:47.009Z,6.42
2017-05-20T09:09:13.675Z,7.04
2017-05-20T09:11:40.397Z,5.80
2017-05-20T09:14:07.100Z,8.42
2017-05-20T09:16:33.019Z,4.50
2017-05-20T09:18:58.942Z,5.40
2017-05-20T09:21:24.941Z,4.80
2017-05-20T09:23:50.854Z,3.82
2017-05-20T09:26:16.724Z,3.52
2017-05-20T09:28:42.931Z,3.76
2017-05-20T09:31:08.829Z,5.60
2017-05-20T09:33:34.834Z,4.60
2017-05-20T09:36:00.663Z,4.96
2017-05-20T09:38:26.614Z,3.06
2017-05-20T09:40:52.605Z,3.50
2017-05-20T09:43:18.489Z,4.16
2017-05-20T09:45:45.118Z,3.76
2017-05-20T09:48:11.010Z,4.40
2017-05-20T09:50:36.948Z,2.42
2017-05-20T09:53:02.880Z,2.94
2017-05-20T09:55:29.494Z,4.52
2017-05-20T09:57:55.475Z,3.64
2017-05-20T10:00:21.341Z,5.30
2017-05-20T10:02:47.206Z,5.86
2017-05-20T10:05:13.082Z,4.30
2017-05-20T10:07:38.997Z,3.60
2017-05-20T10:10:04.983Z,4.54
2017-05-20T10:12:30.866Z,3.86
2017-05-20T10:15:00.015Z,3.98
2017-05-20T10:17:26.245Z,4.30
2017-05-20T10:19:52.124Z,4.38
2017-05-20T10:22:18.752Z,5.00
2017-05-20T10:24:45.366Z,5.82
2017-05-20T10:27:12.015Z,6.62
2017-05-20T10:29:38.622Z,4.70
2017-05-20T10:32:04.601Z,5.14
2017-05-20T10:34:30.487Z,3.64
2017-05-20T10:36:56.364Z,4.44
2017-05-20T10:39:22.334Z,4.32
2017-05-20T10:41:49.070Z,5.92
2017-05-20T10:44:14.985Z,4.74
2017-05-20T10:46:40.877Z,5.56
2017-05-20T10:49:06.761Z,4.38
2017-05-20T10:51:32.717Z,4.68
2017-05-20T10:53:58.645Z,6.00
2017-05-20T10:56:24.556Z,4.74
2017-05-20T10:58:50.420Z,4.48
2017-05-20T11:01:17.048Z,5.48
2017-05-20T11:03:43.831Z,4.44
2017-05-20T11:06:09.716Z,4.70
2017-05-20T11:08:36.342Z,4.62
2017-05-20T11:11:03.003Z,4.90
2017-05-20T11:13:28.866Z,6.20
2017-05-20T11:15:54.820Z,5.02
2017-05-20T11:18:21.427Z,6.38
2017-05-20T11:20:47.297Z,5.80
2017-05-20T11:23:13.233Z,6.16
2017-05-20T11:25:39.104Z,6.14
2017-05-20T11:28:04.970Z,5.32
2017-05-20T11:30:30.858Z,6.20
2017-05-20T11:32:57.576Z,5.00
2017-05-20T11:35:23.453Z,3.32
2017-05-20T11:37:49.362Z,4.62
2017-05-20T11:40:15.281Z,3.98
2017-05-20T11:42:41.214Z,4.26
2017-05-20T11:45:07.220Z,4.16
2017-05-20T11:47:33.258Z,4.26
2017-05-20T11:49:59.128Z,3.94
2017-05-20T11:52:25.757Z,3.40
2017-05-20T11:54:51.642Z,3.80
2017-05-20T11:57:17.651Z,3.70
2017-05-20T11:59:43.527Z,3.56
2017-05-20T12:02:09.382Z,3.20
2017-05-20T12:04:35.267Z,3.40
2017-05-20T12:07:01.124Z,3.48
2017-05-20T12:09:27.102Z,2.80
2017-05-20T12:11:52.983Z,1.88
2017-05-20T12:14:18.855Z,2.34
2017-05-20T12:16:45.564Z,3.12
2017-05-20T12:19:11.468Z,1.66
2017-05-20T12:21:37.375Z,3.12
2017-05-20T12:24:03.465Z,2.36
2017-05-20T12:26:30.097Z,3.96
2017-05-20T12:28:56.740Z,2.36
2017-05-20T12:31:23.392Z,1.82
2017-05-20T12:33:49.324Z,1.64
2017-05-20T12:36:15.988Z,1.70
2017-05-20T12:38:41.853Z,2.20
2017-05-20T12:41:07.721Z,1.40
2017-05-20T12:43:33.620Z,1.70
2017-05-20T12:45:59.502Z,2.00
2017-05-20T12:48:26.197Z,2.02
2017-05-20T12:50:52.070Z,1.98
2017-05-20T12:53:18.708Z,1.94
2017-05-20T12:55:45.331Z,1.24
2017-05-20T12:58:11.955Z,1.50
2017-05-20T13:00:38.573Z,1.30
2017-05-20T13:03:04.456Z,1.26
2017-05-20T13:05:30.314Z,2.40
2017-05-20T13:07:56.186Z,1.52
2017-05-20T13:10:22.186Z,1.56
2017-05-20T13:12:48.801Z,0.80
2017-05-20T13:15:14.687Z,2.94
2017-05-20T13:17:40.596Z,0.84
2017-05-20T13:20:07.109Z,1.28
2017-05-20T13:22:33.079Z,1.52
2017-05-20T13:24:58.940Z,0.80
2017-05-20T13:27:25.575Z,1.04
2017-05-20T13:29:52.186Z,0.60
2017-05-20T13:32:18.071Z,0.72
2017-05-20T13:34:44.041Z,1.36
2017-05-20T13:37:10.666Z,1.30
2017-05-20T13:39:36.587Z,1.20
2017-05-20T13:42:02.508Z,1.60
2017-05-20T13:44:28.520Z,2.04
2017-05-20T13:46:54.492Z,2.16
2017-05-20T13:49:20.353Z,1.64
2017-05-20T13:51:46.223Z,2.00
2017-05-20T13:54:12.092Z,1.82
2017-05-20T13:56:37.968Z,1.48
2017-05-20T13:59:03.872Z,1.52
2017-05-20T14:01:30.595Z,1.82
2017-05-20T14:03:56.492Z,1.50
2017-05-20T14:06:22.380Z,1.54
2017-05-20T14:08:48.264Z,1.08
2017-05-20T14:11:14.873Z,2.20
2017-05-20T14:13:40.833Z,1.04
2017-05-20T14:16:07.457Z,1.24
2017-05-20T14:18:34.086Z,1.40
2017-05-20T14:20:59.978Z,1.30
2017-05-20T14:23:25.860Z,1.36
2017-05-20T14:25:51.731Z,0.92
2017-05-20T14:28:17.741Z,2.18
2017-05-20T14:30:43.712Z,1.14
2017-05-20T14:33:10.332Z,0.98
2017-05-20T14:35:36.953Z,1.76
2017-05-20T14:38:02.825Z,1.60
2017-05-20T14:40:28.701Z,1.66
2017-05-20T14:42:55.498Z,1.38
2017-05-20T14:45:21.392Z,1.26
2017-05-20T14:47:47.279Z,1.18
2017-05-20T14:50:13.949Z,1.30
2017-05-20T14:52:39.837Z,1.48
2017-05-20T14:55:05.830Z,1.42
2017-05-20T14:57:31.733Z,3.32
2017-05-20T14:59:57.606Z,1.62
2017-05-20T15:02:24.228Z,1.50
2017-05-20T15:04:50.099Z,1.02
2017-05-20T15:07:16.101Z,1.34
2017-05-20T15:09:41.988Z,3.60
2017-05-20T15:12:07.859Z,2.04
2017-05-20T15:14:33.760Z,1.64
2017-05-20T15:16:59.656Z,2.90
2017-05-20T15:19:25.880Z,1.98
2017-05-20T15:21:51.807Z,2.34
